This is the latest recevied weather packets stored in our database for station/object N4JTC. If no packets are shown the sender has not sent any weather packets the latest 10 day(s).
| Time | Temp. | Humidity | Pressure | Rain* | Wind** | Luminosity | Snow |
|---|---|---|---|---|---|---|---|
| 1777931703 | 24.44° C | 49% | 1016.3 hPa | 0 mm | - | 402 W/m² | - |
| 1777931103 | 25° C | 48% | 1016.1 hPa | 0 mm | - | 424 W/m² | - |
| 1777930803 | 24.44° C | 50% | 1016.2 hPa | 0 mm | - | 442 W/m² | - |
| 1777930503 | 24.44° C | 49% | 1016.3 hPa | 0 mm | - | 456 W/m² | - |
| 1777930202 | 25° C | 50% | 1016 hPa | 0 mm | - | 492 W/m² | - |
| 1777929903 | 25° C | 50% | 1016.3 hPa | 0 mm | - | 511 W/m² | - |
| 1777929603 | 25° C | 47% | 1016.1 hPa | 0 mm | - | 429 W/m² | - |
| 1777929303 | 24.44° C | 50% | 1016.2 hPa | 0 mm | - | 457 W/m² | - |
| 1777929003 | 25° C | 50% | 1016.2 hPa | 0 mm | - | 543 W/m² | - |
| 1777928703 | 24.44° C | 48% | 1016.2 hPa | 0 mm | - | 519 W/m² | - |
| 1777928403 | 25.56° C | 48% | 1016 hPa | 0 mm | - | 528 W/m² | - |
| 1777928102 | 25° C | 48% | 1016.4 hPa | 0 mm | - | 567 W/m² | - |
| 1777927803 | 25.56° C | 47% | 1016.2 hPa | 0 mm | - | 581 W/m² | - |
| 1777927503 | 25.56° C | 47% | 1016.2 hPa | 0 mm | - | 598 W/m² | - |
| 1777926903 | 25.56° C | 46% | 1016.4 hPa | 0 mm | - | 576 W/m² | - |
| 1777926603 | 25.56° C | 46% | 1016.4 hPa | 0 mm | - | 624 W/m² | - |
| 1777926303 | 25.56° C | 45% | 1016.2 hPa | 0 mm | - | 618 W/m² | - |
| 1777926003 | 25.56° C | 44% | 1016.2 hPa | 0 mm | - | 644 W/m² | - |
| 1777925703 | 25.56° C | 44% | 1016.3 hPa | 0 mm | - | 668 W/m² | - |
| 1777925403 | 25.56° C | 42% | 1016.4 hPa | 0 mm | - | 668 W/m² | - |
| 1777925102 | 25.56° C | 42% | 1016.6 hPa | 0 mm | - | 674 W/m² | - |
| 1777924503 | 26.11° C | 42% | 1016.6 hPa | 0 mm | - | 692 W/m² | - |
| 1777924203 | 26.11° C | 43% | 1016.9 hPa | 0 mm | - | 704 W/m² | - |
| 1777923903 | 26.11° C | 41% | 1016.8 hPa | 0 mm | - | 707 W/m² | - |
| 1777923602 | 26.67° C | 39% | 1016.9 hPa | 0 mm | - | 708 W/m² | - |
* Rain latest hour (hover to see other rain measurements)
** Current wind speed in m/s (hover to see current wind gust speed)